Time;durP1;ratioP1;P1;durP2;ratioP2;P2;SDS_P1;SDS_P2;PMS_P1;PMS_P2;Temp;Humidity;BMP_temperature;BMP_pressure;BME280_temperature;BME280_humidity;BME280_pressure;Samples;Min_cycle;Max_cycle;Signal;HPM_P1;HPM_P2
2022/04/20 00:02:08;;;;;;;199.25;88.45;;;;;;;;;;5051879;28;20210;-61
2022/04/20 00:04:34;;;;;;;258.73;95.53;;;;;;;;;;5055310;28;20597;-61
2022/04/20 00:07:01;;;;;;;269.92;102.07;;;;;;;;;;5055227;28;20621;-61
2022/04/20 00:09:27;;;;;;;267.90;95.93;;;;;;;;;;5055287;28;20221;-61
2022/04/20 00:11:53;;;;;;;277.83;101.75;;;;;;;;;;5054844;28;20207;-60
2022/04/20 00:14:19;;;;;;;275.10;102.10;;;;;;;;;;5054987;28;20207;-61
2022/04/20 00:16:45;;;;;;;221.97;91.93;;;;;;;;;;5055037;28;20493;-60
2022/04/20 00:19:11;;;;;;;256.95;99.05;;;;;;;;;;5037009;28;20494;-61
2022/04/20 00:21:37;;;;;;;276.08;102.90;;;;;;;;;;5054604;28;20202;-60
2022/04/20 00:24:03;;;;;;;273.63;97.78;;;;;;;;;;5054920;28;20170;-62
2022/04/20 00:26:29;;;;;;;281.83;99.18;;;;;;;;;;5054932;28;20181;-61
2022/04/20 00:28:55;;;;;;;219.13;92.78;;;;;;;;;;5054745;28;20171;-61
2022/04/20 00:31:21;;;;;;;287.48;97.85;;;;;;;;;;5054480;28;20224;-60
2022/04/20 00:33:47;;;;;;;280.67;98.35;;;;;;;;;;5054718;28;20192;-61
2022/04/20 00:36:13;;;;;;;253.95;95.80;;;;;;;;;;5054573;28;20222;-61
2022/04/20 00:38:39;;;;;;;262.58;94.10;;;;;;;;;;5054612;28;20199;-61
2022/04/20 00:41:06;;;;;;;253.85;96.97;;;;;;;;;;5054326;28;20256;-61
2022/04/20 00:43:32;;;;;;;277.15;96.80;;;;;;;;;;5054415;28;20211;-61
2022/04/20 00:45:59;;;;;;;261.42;91.40;;;;;;;;;;5054534;28;20193;-61
2022/04/20 00:48:26;;;;;;;268.08;97.22;;;;;;;;;;5054457;28;20175;-61
2022/04/20 00:50:52;;;;;;;276.88;98.90;;;;;;;;;;5054045;28;20168;-60
2022/04/20 00:53:18;;;;;;;189.27;87.03;;;;;;;;;;5054200;28;20190;-61
2022/04/20 00:55:44;;;;;;;246.25;93.22;;;;;;;;;;5054452;28;20180;-61
2022/04/20 00:58:10;;;;;;;247.07;93.27;;;;;;;;;;5054238;28;20544;-62
2022/04/20 01:00:36;;;;;;;127.80;74.82;;;;;;;;;;5054009;28;20935;-61
2022/04/20 01:03:02;;;;;;;104.07;70.80;;;;;;;;;;5054089;28;20192;-58
2022/04/20 01:05:28;;;;;;;114.10;71.95;;;;;;;;;;5054110;28;20168;-59
2022/04/20 01:07:55;;;;;;;118.50;72.10;;;;;;;;;;5054098;28;20654;-61
2022/04/20 01:10:21;;;;;;;98.43;72.63;;;;;;;;;;5053842;28;21187;-61
2022/04/20 01:12:47;;;;;;;108.50;69.13;;;;;;;;;;5053985;28;20195;-62
2022/04/20 01:15:14;;;;;;;112.80;70.50;;;;;;;;;;5053141;28;20202;-61
2022/04/20 01:17:40;;;;;;;110.30;68.25;;;;;;;;;;5054095;28;20171;-61
2022/04/20 01:20:13;;;;;;;95.80;67.43;;;;;;;;;;5053632;28;20180;-59
2022/04/20 01:22:39;;;;;;;101.80;67.13;;;;;;;;;;5060348;22;20235;-62
2022/04/20 01:25:05;;;;;;;112.68;71.45;;;;;;;;;;5033885;28;20212;-63
2022/04/20 01:27:32;;;;;;;94.88;64.28;;;;;;;;;;5033910;28;20169;-62
2022/04/20 01:29:58;;;;;;;132.38;72.78;;;;;;;;;;5033747;28;20184;-62
2022/04/20 01:32:24;;;;;;;113.45;68.80;;;;;;;;;;5033555;28;20208;-62
2022/04/20 01:34:51;;;;;;;76.80;58.88;;;;;;;;;;5033799;28;20258;-63
2022/04/20 01:37:17;;;;;;;83.32;60.58;;;;;;;;;;5033885;28;20181;-63
2022/04/20 01:39:43;;;;;;;133.13;71.93;;;;;;;;;;5033645;28;20171;-63
2022/04/20 01:42:09;;;;;;;145.00;70.03;;;;;;;;;;5033334;28;20480;-63
2022/04/20 01:44:35;;;;;;;172.77;79.45;;;;;;;;;;5033567;28;20940;-63
2022/04/20 01:47:01;;;;;;;202.65;83.75;;;;;;;;;;5033812;28;20218;-63
2022/04/20 01:49:27;;;;;;;192.48;78.05;;;;;;;;;;5033746;28;20205;-63
2022/04/20 01:51:54;;;;;;;76.25;60.17;;;;;;;;;;5033269;28;20707;-63
2022/04/20 01:54:20;;;;;;;96.15;64.40;;;;;;;;;;5033396;28;20674;-63
2022/04/20 01:56:51;;;;;;;101.85;62.63;;;;;;;;;;5033429;28;20269;-63
2022/04/20 01:59:17;;;;;;;189.88;83.88;;;;;;;;;;5033218;28;20167;-63
2022/04/20 02:04:27;;;;;;;191.23;80.10;;;;;;;;;;5033637;28;20293;-63
2022/04/20 02:06:53;;;;;;;178.98;77.25;;;;;;;;;;5033344;28;20178;-63
2022/04/20 02:09:20;;;;;;;96.72;63.50;;;;;;;;;;5033321;28;20182;-62
2022/04/20 02:11:46;;;;;;;167.63;72.82;;;;;;;;;;5032745;28;20245;-62
2022/04/20 02:14:12;;;;;;;184.20;77.63;;;;;;;;;;5033029;28;20897;-62
2022/04/20 02:16:38;;;;;;;189.07;81.32;;;;;;;;;;5033075;28;20176;-63
2022/04/20 02:19:04;;;;;;;185.95;79.15;;;;;;;;;;5032974;28;20171;-62
2022/04/20 02:21:30;;;;;;;174.07;71.65;;;;;;;;;;5032533;28;20218;-62
2022/04/20 02:23:56;;;;;;;159.00;73.03;;;;;;;;;;5032945;28;20698;-62
2022/04/20 02:26:22;;;;;;;160.32;68.57;;;;;;;;;;5031654;28;20180;-62
2022/04/20 02:28:48;;;;;;;185.48;73.47;;;;;;;;;;5032806;28;20187;-62
2022/04/20 02:31:15;;;;;;;177.32;75.80;;;;;;;;;;5032391;28;20192;-62
2022/04/20 02:33:41;;;;;;;180.32;75.65;;;;;;;;;;5032710;28;20281;-62
2022/04/20 02:36:07;;;;;;;197.77;75.22;;;;;;;;;;5032681;28;20247;-63
2022/04/20 02:38:34;;;;;;;200.65;76.93;;;;;;;;;;5032629;28;20660;-62
2022/04/20 02:41:00;;;;;;;202.32;74.70;;;;;;;;;;5032165;28;20947;-63
2022/04/20 02:43:27;;;;;;;208.18;76.68;;;;;;;;;;5032500;28;20210;-63
2022/04/20 02:45:53;;;;;;;216.63;83.40;;;;;;;;;;5032497;28;20172;-63
2022/04/20 02:48:19;;;;;;;213.73;77.10;;;;;;;;;;5032408;28;20203;-63
2022/04/20 02:50:46;;;;;;;246.93;80.85;;;;;;;;;;5032089;28;20240;-63
2022/04/20 02:53:13;;;;;;;212.70;79.82;;;;;;;;;;5032280;28;20618;-63
2022/04/20 02:55:39;;;;;;;200.27;71.60;;;;;;;;;;5032379;28;20163;-64
2022/04/20 02:58:05;;;;;;;173.73;69.22;;;;;;;;;;5032510;28;20263;-64
2022/04/20 03:00:31;;;;;;;147.10;68.07;;;;;;;;;;5031996;28;20240;-63
2022/04/20 03:02:57;;;;;;;171.45;68.32;;;;;;;;;;5032172;28;20745;-63
2022/04/20 03:05:23;;;;;;;164.30;68.20;;;;;;;;;;5032119;28;20175;-63
2022/04/20 03:07:49;;;;;;;166.70;64.90;;;;;;;;;;5032110;28;20175;-63
2022/04/20 03:10:15;;;;;;;203.17;79.23;;;;;;;;;;5031612;28;20191;-63
2022/04/20 03:12:41;;;;;;;202.77;71.87;;;;;;;;;;5032183;28;20433;-63
2022/04/20 03:15:07;;;;;;;202.80;76.30;;;;;;;;;;5031978;28;20463;-63
2022/04/20 03:17:33;;;;;;;81.70;56.47;;;;;;;;;;5031954;28;20180;-63
2022/04/20 03:19:59;;;;;;;81.78;54.67;;;;;;;;;;5031860;28;20260;-63
2022/04/20 03:22:25;;;;;;;83.60;56.80;;;;;;;;;;5014068;28;20223;-63
2022/04/20 03:24:51;;;;;;;99.53;57.72;;;;;;;;;;5031776;28;20247;-62
2022/04/20 03:27:17;;;;;;;157.73;64.90;;;;;;;;;;5031791;28;20635;-62
2022/04/20 03:29:43;;;;;;;146.47;65.37;;;;;;;;;;5031645;28;20416;-63
2022/04/20 03:32:10;;;;;;;95.88;59.55;;;;;;;;;;5031438;28;20956;-63
2022/04/20 03:34:37;;;;;;;167.07;70.70;;;;;;;;;;5031611;28;20218;-62
2022/04/20 03:37:03;;;;;;;187.23;68.75;;;;;;;;;;5031284;28;20229;-62
2022/04/20 03:39:29;;;;;;;182.35;72.70;;;;;;;;;;5031526;28;20181;-62
2022/04/20 03:41:55;;;;;;;177.98;69.80;;;;;;;;;;5031326;28;20200;-63
2022/04/20 03:44:21;;;;;;;108.88;60.25;;;;;;;;;;5031819;28;20200;-63
2022/04/20 03:46:47;;;;;;;190.37;74.17;;;;;;;;;;5031677;28;20187;-63
2022/04/20 03:49:13;;;;;;;123.07;64.47;;;;;;;;;;5031575;28;20888;-63
2022/04/20 03:51:39;;;;;;;150.00;63.07;;;;;;;;;;5031229;28;20472;-63
2022/04/20 03:54:05;;;;;;;180.57;69.63;;;;;;;;;;5031570;28;20459;-63
2022/04/20 03:57:03;;;;;;;197.15;73.15;;;;;;;;;;5031468;28;20174;-63
2022/04/20 03:59:17;;;;;;;193.10;69.93;;;;;;;;;;5031248;28;20186;-64
2022/04/20 04:01:43;;;;;;;198.13;71.13;;;;;;;;;;5031091;28;20197;-64
2022/04/20 04:04:09;;;;;;;157.95;65.50;;;;;;;;;;5031388;28;20202;-64
2022/04/20 04:06:35;;;;;;;137.73;61.75;;;;;;;;;;5031280;28;20684;-64
2022/04/20 04:09:01;;;;;;;83.97;55.37;;;;;;;;;;5031240;28;20175;-62
2022/04/20 04:11:27;;;;;;;85.13;54.60;;;;;;;;;;5030990;28;20432;-62
2022/04/20 04:13:53;;;;;;;122.70;61.35;;;;;;;;;;5031278;28;20459;-62
2022/04/20 04:16:19;;;;;;;138.53;61.50;;;;;;;;;;5031235;28;20703;-62
2022/04/20 04:18:45;;;;;;;131.20;62.47;;;;;;;;;;5031197;28;20407;-62
2022/04/20 04:21:11;;;;;;;101.80;54.57;;;;;;;;;;5030771;28;20437;-62
2022/04/20 04:23:37;;;;;;;123.18;61.58;;;;;;;;;;5031287;28;21175;-62
2022/04/20 04:26:03;;;;;;;109.95;58.30;;;;;;;;;;5031207;28;20648;-62
2022/04/20 04:28:29;;;;;;;103.50;57.60;;;;;;;;;;5031223;28;20179;-62
2022/04/20 04:30:55;;;;;;;107.85;56.78;;;;;;;;;;5030898;28;20241;-62
2022/04/20 04:33:21;;;;;;;113.75;57.20;;;;;;;;;;5030939;28;20638;-63
2022/04/20 04:35:47;;;;;;;81.03;53.97;;;;;;;;;;5031297;28;20183;-62
2022/04/20 04:38:15;;;;;;;71.50;52.17;;;;;;;;;;5029822;28;20930;-62
2022/04/20 04:40:41;;;;;;;82.63;55.22;;;;;;;;;;5030401;28;20409;-62
2022/04/20 04:43:07;;;;;;;76.60;53.50;;;;;;;;;;5031369;28;20645;-62
2022/04/20 04:48:36;;;;;;;80.82;54.08;;;;;;;;;;5030902;28;20284;-63
2022/04/20 04:51:02;;;;;;;80.93;52.92;;;;;;;;;;5034347;28;20197;-63
2022/04/20 04:53:28;;;;;;;71.90;52.75;;;;;;;;;;5034462;28;20200;-63
2022/04/20 04:55:54;;;;;;;72.50;49.80;;;;;;;;;;5034738;28;20180;-63
2022/04/20 04:58:20;;;;;;;79.30;53.65;;;;;;;;;;5034575;28;20202;-63
2022/04/20 05:00:46;;;;;;;89.50;55.57;;;;;;;;;;5034200;28;20265;-63
2022/04/20 05:03:16;;;;;;;141.48;61.83;;;;;;;;;;5034415;28;20419;-63
2022/04/20 05:05:42;;;;;;;140.63;61.33;;;;;;;;;;5034312;28;20165;-63
2022/04/20 05:08:09;;;;;;;148.82;64.97;;;;;;;;;;5033430;28;20175;-63
2022/04/20 05:10:35;;;;;;;151.90;64.13;;;;;;;;;;5033270;28;20174;-63
2022/04/20 05:13:01;;;;;;;151.50;64.07;;;;;;;;;;5034193;28;20194;-63
2022/04/20 05:15:27;;;;;;;81.13;52.83;;;;;;;;;;5034132;28;20281;-63
2022/04/20 05:17:53;;;;;;;113.93;58.25;;;;;;;;;;5034145;28;20247;-63
2022/04/20 05:20:20;;;;;;;152.13;69.10;;;;;;;;;;5033788;28;20207;-63
2022/04/20 05:22:46;;;;;;;140.57;58.75;;;;;;;;;;5033961;28;20706;-63
2022/04/20 05:25:12;;;;;;;167.73;67.88;;;;;;;;;;5034147;28;20244;-63
2022/04/20 05:27:38;;;;;;;126.03;57.10;;;;;;;;;;5033942;28;20189;-63
2022/04/20 05:30:05;;;;;;;116.87;58.40;;;;;;;;;;5033922;28;20174;-62
2022/04/20 05:32:31;;;;;;;134.52;61.58;;;;;;;;;;5033750;28;20431;-62
2022/04/20 05:34:57;;;;;;;139.95;62.58;;;;;;;;;;5033652;28;20221;-62
2022/04/20 05:42:52;;;;;;;70.80;51.75;;;;;;;;;;5032993;28;20268;-62
2022/04/20 05:45:18;;;;;;;73.23;52.70;;;;;;;;;;5033464;28;20181;-62
2022/04/20 05:47:44;;;;;;;78.97;52.50;;;;;;;;;;5033528;28;20458;-63
2022/04/20 05:50:10;;;;;;;84.47;55.90;;;;;;;;;;5033270;28;20182;-63
2022/04/20 05:52:36;;;;;;;70.15;54.47;;;;;;;;;;5033528;28;20194;-63
2022/04/20 05:55:03;;;;;;;98.67;55.33;;;;;;;;;;5033546;28;20863;-63
2022/04/20 05:57:29;;;;;;;79.63;51.20;;;;;;;;;;5015729;28;20422;-63
2022/04/20 05:59:55;;;;;;;99.23;55.87;;;;;;;;;;5033081;28;20174;-63
2022/04/20 06:02:21;;;;;;;91.90;54.55;;;;;;;;;;5033051;28;20433;-63
2022/04/20 06:04:47;;;;;;;107.13;59.85;;;;;;;;;;5033323;28;20179;-63
2022/04/20 06:07:13;;;;;;;106.50;56.10;;;;;;;;;;5033357;28;20169;-64
2022/04/20 06:09:39;;;;;;;103.43;59.33;;;;;;;;;;5015492;28;20422;-63
2022/04/20 06:12:05;;;;;;;71.47;53.42;;;;;;;;;;5032879;28;20273;-63
2022/04/20 06:14:32;;;;;;;70.63;53.95;;;;;;;;;;5033048;28;20208;-63
2022/04/20 06:16:58;;;;;;;141.23;66.90;;;;;;;;;;5033005;28;20662;-64
2022/04/20 06:19:24;;;;;;;131.77;62.67;;;;;;;;;;5015277;28;20169;-63
2022/04/20 06:21:50;;;;;;;124.28;62.90;;;;;;;;;;5032188;28;20213;-64
2022/04/20 06:24:16;;;;;;;144.90;64.32;;;;;;;;;;5030611;28;20175;-63
2022/04/20 06:26:42;;;;;;;135.32;62.42;;;;;;;;;;5031737;28;20187;-62
2022/04/20 06:29:08;;;;;;;145.40;64.43;;;;;;;;;;5032559;28;20164;-62
2022/04/20 06:31:35;;;;;;;148.32;65.80;;;;;;;;;;5032481;28;20187;-62
2022/04/20 06:34:02;;;;;;;141.48;65.68;;;;;;;;;;5032524;28;20289;-62
2022/04/20 06:36:28;;;;;;;148.10;73.18;;;;;;;;;;5032342;28;20177;-62
2022/04/20 06:38:54;;;;;;;139.30;68.35;;;;;;;;;;5032812;28;20206;-63
2022/04/20 06:41:20;;;;;;;127.05;66.25;;;;;;;;;;5032206;28;20227;-62
2022/04/20 06:43:46;;;;;;;122.88;67.25;;;;;;;;;;5032677;28;20730;-61
2022/04/20 06:46:12;;;;;;;134.40;69.00;;;;;;;;;;5014799;28;20216;-62
2022/04/20 06:48:38;;;;;;;113.87;67.10;;;;;;;;;;5032130;28;20211;-62
2022/04/20 06:51:04;;;;;;;135.73;73.13;;;;;;;;;;5032174;28;20501;-62
2022/04/20 06:58:59;;;;;;;159.93;75.32;;;;;;;;;;5032428;28;20664;-62
2022/04/20 07:01:25;;;;;;;171.37;77.20;;;;;;;;;;5032072;28;20231;-62
2022/04/20 07:03:51;;;;;;;166.83;81.37;;;;;;;;;;5031462;28;20415;-62
2022/04/20 07:06:17;;;;;;;155.27;77.57;;;;;;;;;;5032039;28;20787;-63
2022/04/20 07:08:44;;;;;;;128.88;76.18;;;;;;;;;;5032636;28;20199;-64
2022/04/20 07:11:10;;;;;;;174.50;81.68;;;;;;;;;;5031650;28;20204;-63
2022/04/20 07:13:36;;;;;;;173.35;84.05;;;;;;;;;;5031549;28;20208;-62
2022/04/20 07:16:02;;;;;;;124.85;72.72;;;;;;;;;;5031826;28;20179;-62
2022/04/20 07:18:28;;;;;;;179.77;82.82;;;;;;;;;;5031828;28;20568;-62
2022/04/20 07:20:54;;;;;;;193.50;88.87;;;;;;;;;;5031261;28;20173;-62
2022/04/20 07:23:20;;;;;;;194.07;87.55;;;;;;;;;;5013069;28;20423;-62
2022/04/20 07:25:46;;;;;;;186.07;88.90;;;;;;;;;;5030454;28;20176;-62
2022/04/20 07:28:12;;;;;;;186.32;89.07;;;;;;;;;;5030683;28;20636;-63
2022/04/20 07:30:38;;;;;;;192.20;89.30;;;;;;;;;;5030747;28;20187;-62
2022/04/20 07:33:04;;;;;;;185.85;96.25;;;;;;;;;;5027462;28;20183;-62
2022/04/20 07:35:30;;;;;;;206.88;96.35;;;;;;;;;;5030193;28;20213;-63
2022/04/20 07:37:57;;;;;;;212.50;90.28;;;;;;;;;;5031526;28;20172;-63
2022/04/20 07:40:23;;;;;;;222.05;98.97;;;;;;;;;;5029940;28;20212;-63
2022/04/20 07:42:54;;;;;;;221.02;97.72;;;;;;;;;;5014616;28;20711;-63
2022/04/20 07:45:20;;;;;;;231.85;100.60;;;;;;;;;;5030883;28;20192;-63
2022/04/20 07:47:46;;;;;;;241.75;101.20;;;;;;;;;;5030414;28;20188;-63
2022/04/20 07:50:18;;;;;;;253.73;103.53;;;;;;;;;;5030902;28;20172;-63
2022/04/20 07:52:45;;;;;;;271.17;109.03;;;;;;;;;;5031552;28;20426;-63
2022/04/20 07:55:15;;;;;;;257.27;107.43;;;;;;;;;;5031252;28;20204;-63
2022/04/20 07:57:44;;;;;;;237.95;109.70;;;;;;;;;;5031298;28;20173;-62
2022/04/20 08:00:10;;;;;;;177.00;99.13;;;;;;;;;;5030980;28;20184;-62
2022/04/20 08:02:36;;;;;;;258.92;115.10;;;;;;;;;;5030941;28;20235;-62
2022/04/20 08:05:03;;;;;;;253.97;112.47;;;;;;;;;;5030772;28;20213;-63
2022/04/20 08:07:29;;;;;;;259.75;119.95;;;;;;;;;;5031272;28;20887;-62
2022/04/20 08:09:55;;;;;;;259.97;124.87;;;;;;;;;;5030346;28;20271;-62
2022/04/20 08:12:21;;;;;;;145.73;129.80;;;;;;;;;;5030403;28;20447;-63
2022/04/20 08:14:47;;;;;;;176.77;158.65;;;;;;;;;;5030156;28;20205;-63
2022/04/20 08:17:13;;;;;;;206.18;189.48;;;;;;;;;;5030214;28;20271;-63
2022/04/20 08:19:39;;;;;;;260.40;243.50;;;;;;;;;;5031110;28;20172;-64
2022/04/20 08:22:05;;;;;;;308.77;291.77;;;;;;;;;;5029908;28;20439;-64
2022/04/20 08:24:31;;;;;;;333.20;315.80;;;;;;;;;;5034418;28;20407;-63
2022/04/20 08:26:57;;;;;;;325.27;310.43;;;;;;;;;;5034985;28;20902;-63
2022/04/20 08:29:23;;;;;;;385.10;367.83;;;;;;;;;;5034949;28;20408;-64
2022/04/20 08:31:49;;;;;;;507.17;484.63;;;;;;;;;;5034393;28;20431;-64
2022/04/20 08:34:15;;;;;;;441.27;424.07;;;;;;;;;;5017280;28;20482;-64
2022/04/20 08:36:41;;;;;;;513.40;493.53;;;;;;;;;;5035206;28;20389;-64
2022/04/20 08:39:07;;;;;;;455.13;437.87;;;;;;;;;;5034415;28;20509;-63
2022/04/20 08:41:34;;;;;;;441.33;424.83;;;;;;;;;;5000365;28;20425;-63
2022/04/20 08:44:01;;;;;;;398.80;384.30;;;;;;;;;;5000873;28;20415;-63
2022/04/20 08:46:27;;;;;;;496.43;477.83;;;;;;;;;;5034483;28;20532;-63
2022/04/20 08:48:53;;;;;;;569.00;546.93;;;;;;;;;;5033635;28;20438;-64
2022/04/20 08:51:19;;;;;;;522.83;503.17;;;;;;;;;;5034038;28;20913;-63
2022/04/20 08:53:45;;;;;;;676.27;648.47;;;;;;;;;;5034445;28;20478;-63
2022/04/20 08:58:57;;;;;;;810.53;761.57;;;;;;;;;;5034294;28;20829;-64
2022/04/20 09:01:26;;;;;;;809.77;760.87;;;;;;;;;;5033996;28;20460;-63
2022/04/20 09:03:54;;;;;;;822.47;774.83;;;;;;;;;;5033481;28;20411;-63
2022/04/20 09:06:20;;;;;;;815.83;768.23;;;;;;;;;;5032675;28;20424;-62
2022/04/20 09:08:46;;;;;;;821.83;774.20;;;;;;;;;;5033790;28;20482;-63
2022/04/20 09:11:12;;;;;;;794.73;746.83;;;;;;;;;;5015541;28;20970;-63
2022/04/20 09:13:41;;;;;;;768.07;723.27;;;;;;;;;;5033740;28;20553;-63
2022/04/20 09:16:07;;;;;;;737.47;693.77;;;;;;;;;;5033995;28;20444;-63
2022/04/20 09:18:33;;;;;;;741.37;704.50;;;;;;;;;;5033084;28;20455;-63
2022/04/20 09:21:12;;;;;;;751.30;711.90;;;;;;;;;;5031152;28;20467;-63
2022/04/20 09:23:39;;;;;;;778.67;735.70;;;;;;;;;;5034229;28;20419;-64
2022/04/20 09:26:08;;;;;;;811.47;763.67;;;;;;;;;;5033896;28;20443;-64
2022/04/20 09:28:36;;;;;;;829.67;782.60;;;;;;;;;;5033992;28;20403;-64
2022/04/20 09:31:03;;;;;;;446.83;430.83;;;;;;;;;;5033765;28;20493;-63
2022/04/20 09:33:43;;;;;;;808.03;766.30;;;;;;;;;;5034239;28;20812;-64
2022/04/20 09:36:09;;;;;;;793.37;752.47;;;;;;;;;;5033673;28;20409;-63
2022/04/20 09:38:39;;;;;;;823.17;774.77;;;;;;;;;;5033545;28;20408;-63
2022/04/20 09:41:07;;;;;;;812.57;763.97;;;;;;;;;;5033314;28;20431;-62
2022/04/20 09:43:33;;;;;;;748.93;713.73;;;;;;;;;;5033712;28;20447;-63
2022/04/20 09:48:50;;;;;;;641.63;615.37;;;;;;;;;;5031914;28;20436;-62
2022/04/20 09:49:08;;;;;;;680.93;651.70;;;;;;;;;;5030436;28;20806;-62
2022/04/20 09:51:41;;;;;;;783.53;735.93;;;;;;;;;;5030714;28;20444;-62
2022/04/20 09:54:26;;;;;;;749.13;705.30;;;;;;;;;;5032901;28;20554;-62
2022/04/20 09:57:11;;;;;;;738.03;691.93;;;;;;;;;;5032123;28;20437;-62
2022/04/20 09:59:38;;;;;;;748.60;700.00;;;;;;;;;;5032516;28;20423;-62
2022/04/20 10:02:12;;;;;;;784.73;733.70;;;;;;;;;;5032805;28;20807;-62
2022/04/20 10:04:42;;;;;;;736.60;696.90;;;;;;;;;;5032836;28;20923;-62
2022/04/20 10:07:08;;;;;;;798.50;746.20;;;;;;;;;;5031674;28;20438;-62
2022/04/20 10:09:34;;;;;;;790.33;732.23;;;;;;;;;;5030728;28;20965;-64
2022/04/20 10:12:00;;;;;;;767.73;718.73;;;;;;;;;;5032269;28;20471;-62
2022/04/20 10:17:13;;;;;;;746.23;694.37;;;;;;;;;;5032505;28;20822;-62
2022/04/20 10:19:39;;;;;;;749.90;699.97;;;;;;;;;;5032965;28;20506;-62
2022/04/20 10:22:06;;;;;;;777.93;723.63;;;;;;;;;;5030933;28;20533;-62
2022/04/20 10:24:37;;;;;;;786.53;730.00;;;;;;;;;;5032716;28;20419;-63
2022/04/20 10:27:06;;;;;;;771.53;713.03;;;;;;;;;;5032903;28;20406;-63
2022/04/20 10:29:49;;;;;;;343.67;331.57;;;;;;;;;;5032854;28;20443;-63
2022/04/20 10:32:22;;;;;;;331.60;319.90;;;;;;;;;;5014946;28;21214;-63
2022/04/20 10:34:50;;;;;;;308.60;298.20;;;;;;;;;;5032577;28;20458;-63
2022/04/20 10:37:22;;;;;;;346.20;334.47;;;;;;;;;;5032687;28;20418;-63
2022/04/20 10:39:48;;;;;;;725.80;688.53;;;;;;;;;;5032573;28;20395;-63
2022/04/20 10:42:16;;;;;;;745.13;690.67;;;;;;;;;;5032358;28;20946;-63
2022/04/20 10:44:51;;;;;;;715.33;661.37;;;;;;;;;;5032631;28;20772;-64
2022/04/20 10:47:22;;;;;;;742.93;687.77;;;;;;;;;;5031223;28;20416;-63
2022/04/20 10:49:50;;;;;;;692.60;657.13;;;;;;;;;;5032119;28;20417;-63
2022/04/20 10:52:30;;;;;;;741.70;688.63;;;;;;;;;;5032201;28;20436;-63
2022/04/20 10:54:56;;;;;;;754.17;706.07;;;;;;;;;;5014939;28;20809;-63
2022/04/20 10:57:33;;;;;;;781.77;723.87;;;;;;;;;;5032535;28;20443;-63
2022/04/20 11:00:24;;;;;;;362.87;350.20;;;;;;;;;;5032197;28;20410;-63
2022/04/20 11:02:54;;;;;;;377.07;363.57;;;;;;;;;;5032396;28;20489;-63
2022/04/20 11:05:25;;;;;;;714.27;676.90;;;;;;;;;;5032446;28;20493;-63
2022/04/20 11:08:00;;;;;;;751.07;695.07;;;;;;;;;;5030385;28;20421;-63
2022/04/20 11:10:27;;;;;;;731.23;677.07;;;;;;;;;;5030714;28;20500;-63
2022/04/20 11:18:39;;;;;;;763.03;707.97;;;;;;;;;;5014595;28;20423;-63
2022/04/20 11:21:05;;;;;;;776.93;726.67;;;;;;;;;;5030125;28;20450;-63
2022/04/20 11:23:50;;;;;;;745.27;690.67;;;;;;;;;;5030457;28;20413;-63
2022/04/20 11:26:39;;;;;;;736.43;681.93;;;;;;;;;;5029232;28;20923;-63
2022/04/20 11:29:15;;;;;;;302.33;291.87;;;;;;;;;;5017155;28;20522;-62
2022/04/20 11:31:43;;;;;;;365.27;351.73;;;;;;;;;;5030130;28;20447;-63
2022/04/20 11:34:10;;;;;;;646.87;611.97;;;;;;;;;;5027864;28;20579;-63
2022/04/20 11:36:43;;;;;;;658.27;618.47;;;;;;;;;;5030388;28;20415;-63
2022/04/20 11:39:09;;;;;;;649.30;598.50;;;;;;;;;;5027646;28;20404;-63
2022/04/20 11:41:35;;;;;;;453.63;435.60;;;;;;;;;;5029738;28;20437;-62
2022/04/20 11:44:04;;;;;;;221.03;213.93;;;;;;;;;;5030027;28;20395;-63
2022/04/20 11:46:32;;;;;;;300.23;289.90;;;;;;;;;;5027924;28;20390;-63
2022/04/20 11:48:58;;;;;;;271.90;262.80;;;;;;;;;;5030198;28;20415;-63
2022/04/20 11:51:25;;;;;;;281.83;272.30;;;;;;;;;;5029716;28;20412;-63
2022/04/20 11:53:52;;;;;;;420.57;403.93;;;;;;;;;;5029796;28;21035;-63
2022/04/20 11:56:31;;;;;;;616.33;572.30;;;;;;;;;;5030045;28;21088;-62
2022/04/20 11:58:58;;;;;;;559.43;513.50;;;;;;;;;;5033176;28;20855;-62
2022/04/20 12:01:28;;;;;;;566.73;517.40;;;;;;;;;;5036503;28;20934;-62
2022/04/20 12:03:55;;;;;;;547.50;500.13;;;;;;;;;;5036725;28;20408;-62
2022/04/20 12:06:25;;;;;;;427.33;405.67;;;;;;;;;;5036590;28;20751;-62
2022/04/20 12:08:53;;;;;;;480.43;431.67;;;;;;;;;;5034233;28;20439;-62
2022/04/20 12:11:19;;;;;;;498.10;447.37;;;;;;;;;;5036106;28;20439;-62
2022/04/20 12:13:45;;;;;;;486.30;436.93;;;;;;;;;;5037384;28;20468;-63
2022/04/20 12:16:12;;;;;;;476.20;434.67;;;;;;;;;;5037696;28;20457;-62
2022/04/20 12:18:42;;;;;;;363.77;345.77;;;;;;;;;;5037815;28;20399;-62
2022/04/20 12:21:27;;;;;;;229.17;219.37;;;;;;;;;;5037040;28;20482;-63
2022/04/20 12:23:53;;;;;;;424.83;369.17;;;;;;;;;;5037828;28;20449;-62
2022/04/20 12:26:28;;;;;;;442.53;390.23;;;;;;;;;;5037856;28;20422;-62
2022/04/20 12:29:13;;;;;;;416.57;352.83;;;;;;;;;;5037978;28;20484;-62
2022/04/20 12:31:41;;;;;;;391.43;350.77;;;;;;;;;;5037209;28;20509;-62
2022/04/20 12:34:08;;;;;;;258.27;246.20;;;;;;;;;;5037532;28;20455;-62
2022/04/20 12:36:51;;;;;;;200.10;191.30;;;;;;;;;;5037812;28;20501;-62
2022/04/20 12:39:24;;;;;;;341.20;321.80;;;;;;;;;;5037577;28;20407;-62
2022/04/20 12:41:53;;;;;;;432.90;346.87;;;;;;;;;;5037014;28;20445;-62
2022/04/20 12:44:34;;;;;;;400.67;336.83;;;;;;;;;;5020014;28;20407;-62
2022/04/20 12:47:01;;;;;;;384.93;343.73;;;;;;;;;;5037388;28;20860;-62
2022/04/20 12:49:27;;;;;;;398.87;331.83;;;;;;;;;;5019919;28;20442;-62
2022/04/20 12:51:53;;;;;;;272.23;256.63;;;;;;;;;;5037095;28;20435;-62
2022/04/20 12:54:24;;;;;;;273.93;256.53;;;;;;;;;;5037128;28;20562;-62
2022/04/20 13:02:19;;;;;;;308.97;282.87;;;;;;;;;;5037334;28;20422;-62
2022/04/20 13:04:48;;;;;;;365.93;299.20;;;;;;;;;;5037147;28;20435;-62
2022/04/20 13:07:14;;;;;;;389.93;325.03;;;;;;;;;;5035850;28;20966;-62
2022/04/20 13:09:40;;;;;;;360.17;293.77;;;;;;;;;;5071825;23;20493;-61
2022/04/20 13:12:07;;;;;;;381.53;317.70;;;;;;;;;;5070572;28;20471;-59
2022/04/20 13:14:33;;;;;;;394.43;321.50;;;;;;;;;;5072804;28;20947;-60
2022/04/20 13:16:59;;;;;;;387.70;326.83;;;;;;;;;;5072830;28;20440;-63
2022/04/20 13:19:25;;;;;;;392.07;327.87;;;;;;;;;;5069490;28;20490;-60
2022/04/20 13:21:51;;;;;;;392.20;324.60;;;;;;;;;;5061276;28;20906;-59
2022/04/20 13:29:47;;;;;;;379.23;309.53;;;;;;;;;;5063403;28;20475;-57
2022/04/20 13:32:14;;;;;;;392.35;309.33;;;;;;;;;;5061561;28;20411;-60
2022/04/20 13:34:40;;;;;;;389.38;292.90;;;;;;;;;;5061742;28;20258;-60
2022/04/20 13:37:06;;;;;;;404.73;306.90;;;;;;;;;;5063402;28;20601;-59
2022/04/20 13:39:32;;;;;;;314.07;284.43;;;;;;;;;;5061623;28;20484;-61
2022/04/20 13:41:59;;;;;;;233.40;220.47;;;;;;;;;;5062154;28;20410;-62
2022/04/20 13:44:25;;;;;;;218.77;207.23;;;;;;;;;;5062870;28;20420;-60
2022/04/20 13:46:51;;;;;;;233.83;220.27;;;;;;;;;;5061395;28;20441;-61
2022/04/20 13:49:17;;;;;;;240.17;226.53;;;;;;;;;;5062550;28;20435;-63
2022/04/20 13:51:43;;;;;;;248.70;234.17;;;;;;;;;;5062374;28;20411;-62
2022/04/20 13:54:09;;;;;;;240.30;225.63;;;;;;;;;;5043122;28;20454;-61
2022/04/20 13:56:35;;;;;;;264.07;247.87;;;;;;;;;;5062059;28;20461;-63
2022/04/20 13:59:01;;;;;;;339.90;293.43;;;;;;;;;;5062314;28;20439;-61
2022/04/20 14:01:27;;;;;;;307.67;274.10;;;;;;;;;;5060822;28;20418;-61
2022/04/20 14:03:53;;;;;;;356.70;282.93;;;;;;;;;;5062583;28;20409;-62
2022/04/20 14:06:19;;;;;;;185.93;176.20;;;;;;;;;;5061396;28;20402;-62
2022/04/20 14:08:45;;;;;;;169.50;161.17;;;;;;;;;;5060576;28;20905;-63
2022/04/20 14:11:11;;;;;;;168.67;160.47;;;;;;;;;;5062593;28;20418;-62
2022/04/20 14:13:39;;;;;;;173.60;164.83;;;;;;;;;;5061306;28;20483;-62
2022/04/20 14:16:06;;;;;;;189.73;180.27;;;;;;;;;;5061167;28;20462;-62
2022/04/20 14:18:32;;;;;;;344.80;289.15;;;;;;;;;;5062302;28;21168;-62
2022/04/20 14:20:58;;;;;;;380.97;290.87;;;;;;;;;;5070066;28;20199;-62
2022/04/20 14:23:24;;;;;;;401.43;304.33;;;;;;;;;;5065190;28;20477;-61
2022/04/20 14:34:08;;;;;;;434.08;297.02;;;;;;;;;;5072841;28;20467;-62
2022/04/20 14:36:35;;;;;;;464.50;316.13;;;;;;;;;;5053739;28;20228;-62
2022/04/20 14:39:01;;;;;;;460.38;305.30;;;;;;;;;;5070421;28;20566;-62
2022/04/20 14:41:27;;;;;;;204.83;193.33;;;;;;;;;;5065540;28;20172;-62
2022/04/20 14:43:53;;;;;;;187.63;177.23;;;;;;;;;;5069678;28;20430;-62
2022/04/20 14:46:19;;;;;;;193.60;183.20;;;;;;;;;;5070297;28;20412;-62
2022/04/20 14:48:46;;;;;;;455.67;311.60;;;;;;;;;;5057662;28;20420;-62